sensor_id;sensor_type;location;lat;lon;timestamp;pressure;altitude;pressure_sealevel;temperature;humidity
21236;BME280;10775;42.678;26.324;2023-01-04T00:01:47;99600.28;;;5.35;100.00
21236;BME280;10775;42.678;26.324;2023-01-04T00:04:12;99595.00;;;5.30;100.00
21236;BME280;10775;42.678;26.324;2023-01-04T00:06:38;99578.59;;;5.30;100.00
21236;BME280;10775;42.678;26.324;2023-01-04T00:09:03;99589.50;;;5.10;100.00
21236;BME280;10775;42.678;26.324;2023-01-04T00:11:36;99594.50;;;5.53;100.00
21236;BME280;10775;42.678;26.324;2023-01-04T00:14:01;99577.03;;;5.39;100.00
21236;BME280;10775;42.678;26.324;2023-01-04T00:16:28;99576.00;;;5.30;100.00
21236;BME280;10775;42.678;26.324;2023-01-04T00:18:54;99576.94;;;5.35;100.00
21236;BME280;10775;42.678;26.324;2023-01-04T00:21:26;99585.13;;;5.62;100.00
21236;BME280;10775;42.678;26.324;2023-01-04T00:23:54;99572.19;;;5.65;100.00
21236;BME280;10775;42.678;26.324;2023-01-04T00:26:23;99585.84;;;5.52;100.00
21236;BME280;10775;42.678;26.324;2023-01-04T00:28:57;99581.56;;;5.01;100.00
21236;BME280;10775;42.678;26.324;2023-01-04T00:31:24;99587.28;;;5.33;100.00
21236;BME280;10775;42.678;26.324;2023-01-04T00:33:54;99595.75;;;5.23;100.00
21236;BME280;10775;42.678;26.324;2023-01-04T00:36:20;99585.28;;;5.15;100.00
21236;BME280;10775;42.678;26.324;2023-01-04T00:38:46;99596.41;;;5.10;100.00
21236;BME280;10775;42.678;26.324;2023-01-04T00:41:12;99590.28;;;5.05;100.00
21236;BME280;10775;42.678;26.324;2023-01-04T00:43:38;99597.56;;;5.27;100.00
21236;BME280;10775;42.678;26.324;2023-01-04T00:46:06;99601.00;;;5.26;100.00
21236;BME280;10775;42.678;26.324;2023-01-04T00:48:35;99596.38;;;5.08;100.00
21236;BME280;10775;42.678;26.324;2023-01-04T00:51:01;99611.72;;;4.96;100.00
21236;BME280;10775;42.678;26.324;2023-01-04T00:53:27;99609.94;;;4.93;100.00
21236;BME280;10775;42.678;26.324;2023-01-04T00:55:58;99616.47;;;5.21;100.00
21236;BME280;10775;42.678;26.324;2023-01-04T00:58:24;99606.28;;;5.34;100.00
21236;BME280;10775;42.678;26.324;2023-01-04T01:00:49;99599.84;;;5.09;100.00
21236;BME280;10775;42.678;26.324;2023-01-04T01:03:15;99606.78;;;5.10;100.00
21236;BME280;10775;42.678;26.324;2023-01-04T01:05:40;99604.38;;;4.26;100.00
21236;BME280;10775;42.678;26.324;2023-01-04T01:08:06;99610.09;;;4.10;100.00
21236;BME280;10775;42.678;26.324;2023-01-04T01:10:51;99615.38;;;4.60;100.00
21236;BME280;10775;42.678;26.324;2023-01-04T01:13:16;99612.78;;;4.60;100.00
21236;BME280;10775;42.678;26.324;2023-01-04T01:15:42;99597.88;;;4.94;100.00
21236;BME280;10775;42.678;26.324;2023-01-04T01:18:08;99606.22;;;4.76;100.00
21236;BME280;10775;42.678;26.324;2023-01-04T01:20:33;99599.31;;;4.76;100.00
21236;BME280;10775;42.678;26.324;2023-01-04T01:22:59;99599.78;;;5.06;100.00
21236;BME280;10775;42.678;26.324;2023-01-04T01:25:24;99610.41;;;5.19;100.00
21236;BME280;10775;42.678;26.324;2023-01-04T01:27:50;99597.09;;;4.51;100.00
21236;BME280;10775;42.678;26.324;2023-01-04T01:30:16;99607.31;;;4.90;100.00
21236;BME280;10775;42.678;26.324;2023-01-04T01:32:41;99603.06;;;4.94;100.00
21236;BME280;10775;42.678;26.324;2023-01-04T01:35:07;99600.22;;;4.80;100.00
21236;BME280;10775;42.678;26.324;2023-01-04T01:37:34;99597.88;;;4.95;100.00
21236;BME280;10775;42.678;26.324;2023-01-04T01:40:00;99590.97;;;4.96;100.00
21236;BME280;10775;42.678;26.324;2023-01-04T01:42:25;99576.88;;;4.78;100.00
21236;BME280;10775;42.678;26.324;2023-01-04T01:45:00;99594.72;;;4.62;100.00
21236;BME280;10775;42.678;26.324;2023-01-04T01:47:36;99586.13;;;4.64;100.00
21236;BME280;10775;42.678;26.324;2023-01-04T01:50:04;99600.13;;;4.75;100.00
21236;BME280;10775;42.678;26.324;2023-01-04T01:52:34;99588.72;;;4.64;100.00
21236;BME280;10775;42.678;26.324;2023-01-04T01:55:04;99602.56;;;4.66;100.00
21236;BME280;10775;42.678;26.324;2023-01-04T01:57:32;99600.91;;;4.70;100.00
21236;BME280;10775;42.678;26.324;2023-01-04T02:00:06;99610.75;;;4.91;100.00
21236;BME280;10775;42.678;26.324;2023-01-04T02:05:28;99591.81;;;4.46;100.00
21236;BME280;10775;42.678;26.324;2023-01-04T02:07:55;99591.94;;;4.51;100.00
21236;BME280;10775;42.678;26.324;2023-01-04T02:10:22;99595.84;;;4.30;100.00
21236;BME280;10775;42.678;26.324;2023-01-04T02:12:49;99604.47;;;4.76;100.00
21236;BME280;10775;42.678;26.324;2023-01-04T02:15:17;99600.41;;;4.44;100.00
21236;BME280;10775;42.678;26.324;2023-01-04T02:17:59;99602.78;;;4.78;100.00
21236;BME280;10775;42.678;26.324;2023-01-04T02:21:08;99590.28;;;5.06;100.00
21236;BME280;10775;42.678;26.324;2023-01-04T02:26:25;99593.81;;;5.10;100.00
21236;BME280;10775;42.678;26.324;2023-01-04T02:32:06;99607.41;;;4.48;100.00
21236;BME280;10775;42.678;26.324;2023-01-04T02:37:28;99611.31;;;4.73;100.00
21236;BME280;10775;42.678;26.324;2023-01-04T02:40:15;99600.97;;;4.74;100.00
21236;BME280;10775;42.678;26.324;2023-01-04T02:42:49;99606.94;;;4.70;100.00
21236;BME280;10775;42.678;26.324;2023-01-04T02:45:43;99591.72;;;4.87;100.00
21236;BME280;10775;42.678;26.324;2023-01-04T02:48:12;99583.75;;;4.76;100.00
21236;BME280;10775;42.678;26.324;2023-01-04T02:50:58;99599.13;;;4.67;100.00
21236;BME280;10775;42.678;26.324;2023-01-04T02:53:44;99594.50;;;4.99;100.00
21236;BME280;10775;42.678;26.324;2023-01-04T03:01:23;99590.66;;;4.77;100.00
21236;BME280;10775;42.678;26.324;2023-01-04T03:07:26;99588.81;;;4.70;100.00
21236;BME280;10775;42.678;26.324;2023-01-04T03:10:21;99593.88;;;4.17;100.00
21236;BME280;10775;42.678;26.324;2023-01-04T03:13:01;99592.91;;;4.12;100.00
21236;BME280;10775;42.678;26.324;2023-01-04T03:15:32;99593.56;;;4.47;100.00
21236;BME280;10775;42.678;26.324;2023-01-04T03:20:30;99590.44;;;4.64;100.00
21236;BME280;10775;42.678;26.324;2023-01-04T03:23:05;99585.63;;;4.84;100.00
21236;BME280;10775;42.678;26.324;2023-01-04T03:26:05;99594.09;;;4.29;100.00
21236;BME280;10775;42.678;26.324;2023-01-04T03:28:50;99611.47;;;4.35;100.00
21236;BME280;10775;42.678;26.324;2023-01-04T03:31:40;99600.81;;;4.65;100.00
21236;BME280;10775;42.678;26.324;2023-01-04T03:34:26;99594.84;;;4.69;100.00
21236;BME280;10775;42.678;26.324;2023-01-04T03:37:22;99592.84;;;4.53;100.00
21236;BME280;10775;42.678;26.324;2023-01-04T03:46:03;99603.84;;;4.43;100.00
21236;BME280;10775;42.678;26.324;2023-01-04T03:48:59;99599.25;;;4.73;100.00
21236;BME280;10775;42.678;26.324;2023-01-04T03:51:32;99599.94;;;4.63;100.00
21236;BME280;10775;42.678;26.324;2023-01-04T03:54:09;99602.44;;;4.60;100.00
21236;BME280;10775;42.678;26.324;2023-01-04T03:56:40;99602.84;;;4.82;100.00
21236;BME280;10775;42.678;26.324;2023-01-04T03:59:07;99604.25;;;4.64;100.00
21236;BME280;10775;42.678;26.324;2023-01-04T04:01:35;99594.66;;;4.60;100.00
21236;BME280;10775;42.678;26.324;2023-01-04T04:04:01;99606.00;;;4.20;100.00
21236;BME280;10775;42.678;26.324;2023-01-04T04:06:45;99607.28;;;4.42;100.00
21236;BME280;10775;42.678;26.324;2023-01-04T04:09:30;99602.59;;;4.22;100.00
21236;BME280;10775;42.678;26.324;2023-01-04T04:11:56;99590.25;;;4.54;100.00
21236;BME280;10775;42.678;26.324;2023-01-04T04:14:23;99600.13;;;4.74;100.00
21236;BME280;10775;42.678;26.324;2023-01-04T04:16:50;99602.84;;;4.82;100.00
21236;BME280;10775;42.678;26.324;2023-01-04T04:19:16;99606.50;;;4.93;100.00
21236;BME280;10775;42.678;26.324;2023-01-04T04:21:43;99616.63;;;4.80;100.00
21236;BME280;10775;42.678;26.324;2023-01-04T04:24:19;99616.03;;;4.94;100.00
21236;BME280;10775;42.678;26.324;2023-01-04T04:26:45;99618.66;;;4.97;100.00
21236;BME280;10775;42.678;26.324;2023-01-04T04:29:10;99628.16;;;4.98;100.00
21236;BME280;10775;42.678;26.324;2023-01-04T04:31:36;99615.00;;;4.86;100.00
21236;BME280;10775;42.678;26.324;2023-01-04T04:34:02;99623.81;;;4.95;100.00
21236;BME280;10775;42.678;26.324;2023-01-04T04:36:30;99633.75;;;4.72;100.00
21236;BME280;10775;42.678;26.324;2023-01-04T04:38:56;99643.47;;;4.39;100.00
21236;BME280;10775;42.678;26.324;2023-01-04T04:41:22;99644.78;;;4.18;100.00
21236;BME280;10775;42.678;26.324;2023-01-04T04:44:05;99643.00;;;4.58;100.00
21236;BME280;10775;42.678;26.324;2023-01-04T04:46:31;99641.38;;;4.63;100.00
21236;BME280;10775;42.678;26.324;2023-01-04T04:48:57;99641.53;;;4.71;100.00
21236;BME280;10775;42.678;26.324;2023-01-04T04:51:23;99629.38;;;4.68;100.00
21236;BME280;10775;42.678;26.324;2023-01-04T04:53:48;99640.72;;;4.75;100.00
21236;BME280;10775;42.678;26.324;2023-01-04T04:56:14;99647.38;;;4.62;100.00
21236;BME280;10775;42.678;26.324;2023-01-04T04:58:40;99640.72;;;4.73;100.00
21236;BME280;10775;42.678;26.324;2023-01-04T05:01:06;99638.22;;;4.79;100.00
21236;BME280;10775;42.678;26.324;2023-01-04T05:03:32;99650.13;;;4.70;100.00
21236;BME280;10775;42.678;26.324;2023-01-04T05:05:58;99651.06;;;4.73;100.00
21236;BME280;10775;42.678;26.324;2023-01-04T05:08:23;99648.28;;;4.20;100.00
21236;BME280;10775;42.678;26.324;2023-01-04T05:10:50;99649.63;;;4.44;100.00
21236;BME280;10775;42.678;26.324;2023-01-04T05:13:16;99659.50;;;4.63;100.00
21236;BME280;10775;42.678;26.324;2023-01-04T05:15:46;99654.03;;;4.49;100.00
21236;BME280;10775;42.678;26.324;2023-01-04T05:18:14;99660.53;;;4.29;100.00
21236;BME280;10775;42.678;26.324;2023-01-04T05:20:41;99641.78;;;4.41;100.00
21236;BME280;10775;42.678;26.324;2023-01-04T05:23:09;99659.38;;;4.57;100.00
21236;BME280;10775;42.678;26.324;2023-01-04T05:25:35;99659.34;;;4.13;100.00
21236;BME280;10775;42.678;26.324;2023-01-04T05:28:01;99662.63;;;4.47;100.00
21236;BME280;10775;42.678;26.324;2023-01-04T05:30:30;99668.97;;;4.61;100.00
21236;BME280;10775;42.678;26.324;2023-01-04T05:33:14;99664.91;;;4.31;100.00
21236;BME280;10775;42.678;26.324;2023-01-04T05:35:40;99665.03;;;3.97;100.00
21236;BME280;10775;42.678;26.324;2023-01-04T05:38:06;99667.63;;;4.38;100.00
21236;BME280;10775;42.678;26.324;2023-01-04T05:40:32;99667.28;;;4.21;100.00
21236;BME280;10775;42.678;26.324;2023-01-04T05:42:57;99673.78;;;4.44;100.00
21236;BME280;10775;42.678;26.324;2023-01-04T05:45:23;99673.88;;;4.49;100.00
21236;BME280;10775;42.678;26.324;2023-01-04T05:47:50;99676.69;;;4.58;100.00
21236;BME280;10775;42.678;26.324;2023-01-04T05:50:16;99683.53;;;4.56;100.00
21236;BME280;10775;42.678;26.324;2023-01-04T05:52:43;99676.88;;;4.69;100.00
21236;BME280;10775;42.678;26.324;2023-01-04T05:55:09;99680.53;;;4.78;100.00
21236;BME280;10775;42.678;26.324;2023-01-04T05:57:35;99679.72;;;4.83;100.00
21236;BME280;10775;42.678;26.324;2023-01-04T06:00:00;99686.72;;;4.87;100.00
21236;BME280;10775;42.678;26.324;2023-01-04T06:02:28;99676.50;;;4.94;100.00
21236;BME280;10775;42.678;26.324;2023-01-04T06:04:55;99679.56;;;4.73;100.00
21236;BME280;10775;42.678;26.324;2023-01-04T06:07:22;99689.19;;;4.80;100.00
21236;BME280;10775;42.678;26.324;2023-01-04T06:09:48;99700.22;;;4.70;100.00
21236;BME280;10775;42.678;26.324;2023-01-04T06:12:14;99695.03;;;4.69;100.00
21236;BME280;10775;42.678;26.324;2023-01-04T06:14:40;99700.47;;;4.83;100.00
21236;BME280;10775;42.678;26.324;2023-01-04T06:17:06;99708.28;;;4.86;100.00
21236;BME280;10775;42.678;26.324;2023-01-04T06:19:32;99712.75;;;4.49;100.00
21236;BME280;10775;42.678;26.324;2023-01-04T06:21:58;99726.88;;;4.65;100.00
21236;BME280;10775;42.678;26.324;2023-01-04T06:24:24;99711.22;;;4.60;100.00
21236;BME280;10775;42.678;26.324;2023-01-04T06:26:49;99715.69;;;4.66;100.00
21236;BME280;10775;42.678;26.324;2023-01-04T06:29:15;99724.47;;;4.74;100.00
21236;BME280;10775;42.678;26.324;2023-01-04T06:31:41;99732.84;;;5.06;100.00
21236;BME280;10775;42.678;26.324;2023-01-04T06:34:10;99732.19;;;5.16;100.00
21236;BME280;10775;42.678;26.324;2023-01-04T06:36:36;99735.63;;;5.15;100.00
21236;BME280;10775;42.678;26.324;2023-01-04T06:39:02;99737.94;;;5.00;100.00
21236;BME280;10775;42.678;26.324;2023-01-04T06:41:29;99735.44;;;5.06;100.00
21236;BME280;10775;42.678;26.324;2023-01-04T06:43:55;99729.22;;;5.42;100.00
21236;BME280;10775;42.678;26.324;2023-01-04T06:46:20;99735.09;;;5.85;100.00
21236;BME280;10775;42.678;26.324;2023-01-04T06:48:46;99739.00;;;6.13;100.00
21236;BME280;10775;42.678;26.324;2023-01-04T06:51:12;99739.09;;;6.18;100.00
21236;BME280;10775;42.678;26.324;2023-01-04T06:53:37;99731.31;;;6.18;100.00
21236;BME280;10775;42.678;26.324;2023-01-04T06:56:03;99734.88;;;6.26;100.00
21236;BME280;10775;42.678;26.324;2023-01-04T06:58:29;99738.34;;;5.70;100.00
21236;BME280;10775;42.678;26.324;2023-01-04T07:00:55;99736.41;;;6.12;100.00
21236;BME280;10775;42.678;26.324;2023-01-04T07:03:21;99730.28;;;6.06;100.00
21236;BME280;10775;42.678;26.324;2023-01-04T07:05:47;99739.22;;;5.72;100.00
21236;BME280;10775;42.678;26.324;2023-01-04T07:08:14;99738.50;;;6.37;100.00
21236;BME280;10775;42.678;26.324;2023-01-04T07:10:40;99738.94;;;6.71;100.00
21236;BME280;10775;42.678;26.324;2023-01-04T07:13:06;99751.31;;;6.90;100.00
21236;BME280;10775;42.678;26.324;2023-01-04T07:15:32;99744.53;;;7.03;100.00
21236;BME280;10775;42.678;26.324;2023-01-04T07:17:58;99743.69;;;7.07;100.00
21236;BME280;10775;42.678;26.324;2023-01-04T07:20:24;99756.66;;;7.03;100.00
21236;BME280;10775;42.678;26.324;2023-01-04T07:22:50;99749.88;;;7.17;100.00
21236;BME280;10775;42.678;26.324;2023-01-04T07:25:15;99753.47;;;7.30;100.00
21236;BME280;10775;42.678;26.324;2023-01-04T07:27:41;99756.94;;;7.30;100.00
21236;BME280;10775;42.678;26.324;2023-01-04T07:30:07;99747.44;;;7.32;100.00
21236;BME280;10775;42.678;26.324;2023-01-04T07:32:33;99756.97;;;7.33;100.00
21236;BME280;10775;42.678;26.324;2023-01-04T07:34:58;99753.69;;;7.51;100.00
21236;BME280;10775;42.678;26.324;2023-01-04T07:37:24;99751.97;;;7.52;100.00
21236;BME280;10775;42.678;26.324;2023-01-04T07:39:50;99746.81;;;7.58;100.00
21236;BME280;10775;42.678;26.324;2023-01-04T07:42:16;99751.19;;;7.63;100.00
21236;BME280;10775;42.678;26.324;2023-01-04T07:44:43;99746.13;;;7.77;100.00
21236;BME280;10775;42.678;26.324;2023-01-04T07:47:09;99746.22;;;7.91;100.00
21236;BME280;10775;42.678;26.324;2023-01-04T07:49:35;99747.16;;;7.98;100.00
21236;BME280;10775;42.678;26.324;2023-01-04T07:52:00;99752.38;;;7.98;100.00
21236;BME280;10775;42.678;26.324;2023-01-04T07:54:26;99751.53;;;8.03;100.00
21236;BME280;10775;42.678;26.324;2023-01-04T07:56:52;99757.56;;;7.98;100.00
21236;BME280;10775;42.678;26.324;2023-01-04T07:59:19;99762.72;;;7.95;100.00
21236;BME280;10775;42.678;26.324;2023-01-04T08:01:46;99770.97;;;7.42;100.00
21236;BME280;10775;42.678;26.324;2023-01-04T08:04:13;99767.97;;;7.96;100.00
21236;BME280;10775;42.678;26.324;2023-01-04T08:06:40;99769.81;;;8.13;100.00
21236;BME280;10775;42.678;26.324;2023-01-04T08:09:06;99764.47;;;7.93;100.00
21236;BME280;10775;42.678;26.324;2023-01-04T08:11:33;99766.47;;;8.29;100.00
21236;BME280;10775;42.678;26.324;2023-01-04T08:13:59;99772.25;;;7.91;100.00
21236;BME280;10775;42.678;26.324;2023-01-04T08:16:27;99767.28;;;8.22;100.00
21236;BME280;10775;42.678;26.324;2023-01-04T08:18:57;99763.69;;;8.07;100.00
21236;BME280;10775;42.678;26.324;2023-01-04T08:21:23;99761.50;;;8.69;100.00
21236;BME280;10775;42.678;26.324;2023-01-04T08:23:50;99754.81;;;9.69;100.00
21236;BME280;10775;42.678;26.324;2023-01-04T08:26:16;99756.56;;;9.72;100.00
21236;BME280;10775;42.678;26.324;2023-01-04T08:28:46;99753.91;;;9.50;100.00
21236;BME280;10775;42.678;26.324;2023-01-04T08:31:17;99753.91;;;10.15;100.00
21236;BME280;10775;42.678;26.324;2023-01-04T08:33:43;99742.59;;;10.27;100.00
21236;BME280;10775;42.678;26.324;2023-01-04T08:36:18;99751.25;;;10.58;100.00
21236;BME280;10775;42.678;26.324;2023-01-04T08:38:46;99740.69;;;10.87;100.00
21236;BME280;10775;42.678;26.324;2023-01-04T08:41:12;99745.75;;;11.22;100.00
21236;BME280;10775;42.678;26.324;2023-01-04T08:43:39;99735.28;;;11.21;100.00
21236;BME280;10775;42.678;26.324;2023-01-04T08:46:05;99747.34;;;11.45;100.00
21236;BME280;10775;42.678;26.324;2023-01-04T08:48:32;99742.22;;;11.26;100.00
21236;BME280;10775;42.678;26.324;2023-01-04T08:50:59;99752.53;;;11.54;100.00
21236;BME280;10775;42.678;26.324;2023-01-04T08:53:26;99758.53;;;11.71;100.00
21236;BME280;10775;42.678;26.324;2023-01-04T08:55:52;99762.03;;;11.67;100.00
21236;BME280;10775;42.678;26.324;2023-01-04T08:58:19;99770.31;;;10.91;100.00
21236;BME280;10775;42.678;26.324;2023-01-04T09:00:44;99752.84;;;10.99;100.00
21236;BME280;10775;42.678;26.324;2023-01-04T09:03:10;99755.59;;;10.65;100.00
21236;BME280;10775;42.678;26.324;2023-01-04T09:05:36;99752.91;;;10.86;100.00
21236;BME280;10775;42.678;26.324;2023-01-04T09:08:02;99747.59;;;11.09;100.00
21236;BME280;10775;42.678;26.324;2023-01-04T09:10:28;99751.91;;;11.14;100.00
21236;BME280;10775;42.678;26.324;2023-01-04T09:12:54;99754.56;;;11.06;100.00
21236;BME280;10775;42.678;26.324;2023-01-04T09:15:19;99752.03;;;10.92;100.00
21236;BME280;10775;42.678;26.324;2023-01-04T09:17:45;99742.31;;;11.13;100.00
21236;BME280;10775;42.678;26.324;2023-01-04T09:20:11;99742.50;;;10.68;99.27
21236;BME280;10775;42.678;26.324;2023-01-04T09:22:36;99730.97;;;11.09;100.00
21236;BME280;10775;42.678;26.324;2023-01-04T09:25:02;99745.81;;;11.15;100.00
21236;BME280;10775;42.678;26.324;2023-01-04T09:27:30;99728.00;;;11.66;100.00
21236;BME280;10775;42.678;26.324;2023-01-04T09:29:56;99727.47;;;11.12;100.00
21236;BME280;10775;42.678;26.324;2023-01-04T09:32:21;99721.00;;;11.71;100.00
21236;BME280;10775;42.678;26.324;2023-01-04T09:34:47;99729.59;;;11.91;100.00
21236;BME280;10775;42.678;26.324;2023-01-04T09:37:13;99736.28;;;12.22;100.00
21236;BME280;10775;42.678;26.324;2023-01-04T09:39:38;99743.47;;;12.00;100.00
21236;BME280;10775;42.678;26.324;2023-01-04T09:44:55;99725.63;;;11.34;100.00
21236;BME280;10775;42.678;26.324;2023-01-04T09:48:20;99723.34;;;12.03;94.31
21236;BME280;10775;42.678;26.324;2023-01-04T09:50:54;99730.81;;;12.42;89.72
21236;BME280;10775;42.678;26.324;2023-01-04T09:53:28;99718.25;;;12.70;91.22
21236;BME280;10775;42.678;26.324;2023-01-04T09:56:23;99729.06;;;12.45;87.17
21236;BME280;10775;42.678;26.324;2023-01-04T09:58:47;99730.28;;;12.10;88.47
21236;BME280;10775;42.678;26.324;2023-01-04T10:01:21;99727.69;;;12.07;89.50
21236;BME280;10775;42.678;26.324;2023-01-04T10:04:21;99727.56;;;12.16;88.48
21236;BME280;10775;42.678;26.324;2023-01-04T10:06:48;99720.00;;;11.89;88.85
21236;BME280;10775;42.678;26.324;2023-01-04T10:09:15;99716.44;;;11.93;92.76
21236;BME280;10775;42.678;26.324;2023-01-04T10:12:32;99714.53;;;12.09;89.67
21236;BME280;10775;42.678;26.324;2023-01-04T10:14:49;99708.25;;;12.27;90.02
21236;BME280;10775;42.678;26.324;2023-01-04T10:17:51;99710.78;;;12.37;87.88
21236;BME280;10775;42.678;26.324;2023-01-04T10:23:29;99702.19;;;12.23;87.00
21236;BME280;10775;42.678;26.324;2023-01-04T10:29:35;99689.69;;;13.15;89.78
21236;BME280;10775;42.678;26.324;2023-01-04T10:32:10;99676.78;;;12.98;83.81
21236;BME280;10775;42.678;26.324;2023-01-04T10:34:46;99688.56;;;13.33;84.11
21236;BME280;10775;42.678;26.324;2023-01-04T10:39:42;99692.03;;;13.87;80.89
21236;BME280;10775;42.678;26.324;2023-01-04T10:50:28;99688.66;;;13.25;89.82
21236;BME280;10775;42.678;26.324;2023-01-04T10:53:10;99695.75;;;13.18;88.92
21236;BME280;10775;42.678;26.324;2023-01-04T10:58:59;99696.25;;;12.80;88.54
21236;BME280;10775;42.678;26.324;2023-01-04T11:01:41;99700.94;;;12.56;86.86
21236;BME280;10775;42.678;26.324;2023-01-04T11:04:20;99695.91;;;12.38;86.90
21236;BME280;10775;42.678;26.324;2023-01-04T11:09:26;99684.91;;;12.78;88.44
21236;BME280;10775;42.678;26.324;2023-01-04T11:11:56;99686.00;;;12.63;87.06
21236;BME280;10775;42.678;26.324;2023-01-04T11:14:22;99681.47;;;12.76;88.84
21236;BME280;10775;42.678;26.324;2023-01-04T11:16:51;99678.63;;;12.91;89.84
21236;BME280;10775;42.678;26.324;2023-01-04T11:19:20;99677.84;;;12.84;85.08
21236;BME280;10775;42.678;26.324;2023-01-04T11:24:33;99687.63;;;12.73;87.75
21236;BME280;10775;42.678;26.324;2023-01-04T11:27:12;99669.06;;;12.87;87.10
21236;BME280;10775;42.678;26.324;2023-01-04T11:29:57;99667.00;;;13.09;86.09
21236;BME280;10775;42.678;26.324;2023-01-04T11:32:41;99661.72;;;13.11;88.03
21236;BME280;10775;42.678;26.324;2023-01-04T11:35:10;99663.50;;;13.09;88.23
21236;BME280;10775;42.678;26.324;2023-01-04T11:37:38;99659.25;;;13.00;84.63
21236;BME280;10775;42.678;26.324;2023-01-04T11:42:47;99656.00;;;12.82;82.93
21236;BME280;10775;42.678;26.324;2023-01-04T11:45:23;99660.22;;;12.94;90.71
21236;BME280;10775;42.678;26.324;2023-01-04T11:47:55;99656.69;;;12.95;89.07
21236;BME280;10775;42.678;26.324;2023-01-04T11:50:37;99654.19;;;12.88;89.60
21236;BME280;10775;42.678;26.324;2023-01-04T11:53:29;99651.59;;;12.86;88.63
21236;BME280;10775;42.678;26.324;2023-01-04T11:56:09;99661.13;;;12.90;88.01
21236;BME280;10775;42.678;26.324;2023-01-04T11:58:35;99656.69;;;12.95;84.42
21236;BME280;10775;42.678;26.324;2023-01-04T12:01:01;99656.69;;;12.97;83.39
21236;BME280;10775;42.678;26.324;2023-01-04T12:03:35;99655.72;;;13.02;88.08
21236;BME280;10775;42.678;26.324;2023-01-04T12:06:20;99660.91;;;13.07;80.20
21236;BME280;10775;42.678;26.324;2023-01-04T12:08:48;99653.91;;;13.08;82.72
21236;BME280;10775;42.678;26.324;2023-01-04T12:11:19;99646.34;;;12.86;80.33
21236;BME280;10775;42.678;26.324;2023-01-04T12:13:47;99649.72;;;12.94;85.67
21236;BME280;10775;42.678;26.324;2023-01-04T12:16:32;99655.78;;;12.98;83.51
21236;BME280;10775;42.678;26.324;2023-01-04T12:19:02;99640.44;;;12.69;81.25
21236;BME280;10775;42.678;26.324;2023-01-04T12:21:32;99650.25;;;12.54;80.31
21236;BME280;10775;42.678;26.324;2023-01-04T12:23:59;99649.47;;;12.45;80.73
21236;BME280;10775;42.678;26.324;2023-01-04T12:26:25;99645.03;;;12.51;80.87
21236;BME280;10775;42.678;26.324;2023-01-04T12:34:46;99649.28;;;12.61;82.96
21236;BME280;10775;42.678;26.324;2023-01-04T12:45:42;99650.38;;;12.42;81.40
21236;BME280;10775;42.678;26.324;2023-01-04T12:51:22;99650.94;;;12.69;92.35
21236;BME280;10775;42.678;26.324;2023-01-04T12:53:57;99650.03;;;12.70;93.48
21236;BME280;10775;42.678;26.324;2023-01-04T12:59:36;99653.66;;;12.61;90.58
21236;BME280;10775;42.678;26.324;2023-01-04T13:04:58;99658.78;;;12.70;85.39
21236;BME280;10775;42.678;26.324;2023-01-04T13:07:41;99658.16;;;12.50;82.41
21236;BME280;10775;42.678;26.324;2023-01-04T13:18:35;99671.31;;;12.48;86.35
21236;BME280;10775;42.678;26.324;2023-01-04T13:21:14;99660.97;;;12.34;82.61
21236;BME280;10775;42.678;26.324;2023-01-04T13:23:50;99674.19;;;12.25;83.29
21236;BME280;10775;42.678;26.324;2023-01-04T13:34:20;99674.03;;;12.40;93.48
21236;BME280;10775;42.678;26.324;2023-01-04T13:36:55;99677.47;;;12.44;93.77
21236;BME280;10775;42.678;26.324;2023-01-04T13:39:24;99675.78;;;12.38;97.81
21236;BME280;10775;42.678;26.324;2023-01-04T13:41:50;99678.22;;;12.54;100.00
21236;BME280;10775;42.678;26.324;2023-01-04T13:45:02;99685.59;;;12.23;87.17
21236;BME280;10775;42.678;26.324;2023-01-04T13:47:35;99684.88;;;12.07;86.59
21236;BME280;10775;42.678;26.324;2023-01-04T13:50:03;99684.06;;;12.00;88.53
21236;BME280;10775;42.678;26.324;2023-01-04T13:52:29;99690.13;;;12.05;91.25
21236;BME280;10775;42.678;26.324;2023-01-04T13:58:00;99688.09;;;12.33;100.00
21236;BME280;10775;42.678;26.324;2023-01-04T14:00:33;99700.47;;;12.21;100.00
21236;BME280;10775;42.678;26.324;2023-01-04T14:05:53;99699.88;;;11.94;100.00
21236;BME280;10775;42.678;26.324;2023-01-04T14:08:38;99703.25;;;12.04;100.00
21236;BME280;10775;42.678;26.324;2023-01-04T14:11:39;99706.75;;;12.01;100.00
21236;BME280;10775;42.678;26.324;2023-01-04T14:19:56;99709.41;;;11.98;100.00
21236;BME280;10775;42.678;26.324;2023-01-04T14:22:26;99716.31;;;12.10;100.00
21236;BME280;10775;42.678;26.324;2023-01-04T14:24:54;99711.22;;;11.93;100.00
21236;BME280;10775;42.678;26.324;2023-01-04T14:27:35;99713.88;;;11.90;100.00
21236;BME280;10775;42.678;26.324;2023-01-04T14:32:57;99702.34;;;12.06;100.00
21236;BME280;10775;42.678;26.324;2023-01-04T14:35:26;99700.63;;;12.04;100.00
21236;BME280;10775;42.678;26.324;2023-01-04T14:37:53;99705.09;;;11.94;100.00
21236;BME280;10775;42.678;26.324;2023-01-04T14:40:24;99712.94;;;11.95;100.00
21236;BME280;10775;42.678;26.324;2023-01-04T14:42:53;99706.88;;;11.92;100.00
21236;BME280;10775;42.678;26.324;2023-01-04T14:45:19;99706.03;;;11.84;100.00
21236;BME280;10775;42.678;26.324;2023-01-04T14:47:45;99713.44;;;11.28;100.00
21236;BME280;10775;42.678;26.324;2023-01-04T14:50:14;99720.56;;;11.01;100.00
21236;BME280;10775;42.678;26.324;2023-01-04T14:52:52;99716.22;;;10.99;100.00
21236;BME280;10775;42.678;26.324;2023-01-04T14:55:18;99718.84;;;10.97;96.83
21236;BME280;10775;42.678;26.324;2023-01-04T14:57:44;99702.09;;;11.27;100.00
21236;BME280;10775;42.678;26.324;2023-01-04T15:00:17;99700.47;;;11.08;95.78